sensor_id;sensor_type;location;lat;lon;timestamp;temperature;humidity
1447;DHT22;717;51.522;7.266;2023-02-28T00:01:35;8.30;94.60
1447;DHT22;717;51.522;7.266;2023-02-28T00:04:04;8.30;94.50
1447;DHT22;717;51.522;7.266;2023-02-28T00:06:37;8.30;94.60
1447;DHT22;717;51.522;7.266;2023-02-28T00:09:07;8.30;94.60
1447;DHT22;717;51.522;7.266;2023-02-28T00:11:36;8.30;94.40
1447;DHT22;717;51.522;7.266;2023-02-28T00:14:04;8.30;94.50
1447;DHT22;717;51.522;7.266;2023-02-28T00:16:33;8.30;94.40
1447;DHT22;717;51.522;7.266;2023-02-28T00:19:01;8.20;94.50
1447;DHT22;717;51.522;7.266;2023-02-28T00:21:30;8.20;94.50
1447;DHT22;717;51.522;7.266;2023-02-28T00:24:01;8.20;94.50
1447;DHT22;717;51.522;7.266;2023-02-28T00:26:30;8.20;94.50
1447;DHT22;717;51.522;7.266;2023-02-28T00:28:58;8.20;94.60
1447;DHT22;717;51.522;7.266;2023-02-28T00:31:27;8.20;94.60
1447;DHT22;717;51.522;7.266;2023-02-28T00:33:55;8.20;94.70
1447;DHT22;717;51.522;7.266;2023-02-28T00:36:24;8.20;94.70
1447;DHT22;717;51.522;7.266;2023-02-28T00:38:52;8.20;94.70
1447;DHT22;717;51.522;7.266;2023-02-28T00:41:23;8.20;94.60
1447;DHT22;717;51.522;7.266;2023-02-28T00:43:52;8.20;94.60
1447;DHT22;717;51.522;7.266;2023-02-28T00:46:20;8.20;94.60
1447;DHT22;717;51.522;7.266;2023-02-28T00:48:49;8.10;94.60
1447;DHT22;717;51.522;7.266;2023-02-28T00:51:17;8.10;94.60
1447;DHT22;717;51.522;7.266;2023-02-28T00:53:46;8.20;94.70
1447;DHT22;717;51.522;7.266;2023-02-28T00:56:14;8.10;94.80
1447;DHT22;717;51.522;7.266;2023-02-28T00:58:45;8.10;94.60
1447;DHT22;717;51.522;7.266;2023-02-28T01:01:14;8.10;94.70
1447;DHT22;717;51.522;7.266;2023-02-28T01:03:42;8.10;94.70
1447;DHT22;717;51.522;7.266;2023-02-28T01:06:11;8.10;94.80
1447;DHT22;717;51.522;7.266;2023-02-28T01:08:39;8.10;94.90
1447;DHT22;717;51.522;7.266;2023-02-28T01:11:09;8.10;94.80
1447;DHT22;717;51.522;7.266;2023-02-28T01:13:38;8.10;94.70
1447;DHT22;717;51.522;7.266;2023-02-28T01:16:10;8.00;94.80
1447;DHT22;717;51.522;7.266;2023-02-28T01:18:38;8.00;94.90
1447;DHT22;717;51.522;7.266;2023-02-28T01:21:08;8.00;94.70
1447;DHT22;717;51.522;7.266;2023-02-28T01:23:37;8.00;94.80
1447;DHT22;717;51.522;7.266;2023-02-28T01:26:07;8.00;94.80
1447;DHT22;717;51.522;7.266;2023-02-28T01:28:37;8.00;94.70
1447;DHT22;717;51.522;7.266;2023-02-28T01:31:05;7.90;94.80
1447;DHT22;717;51.522;7.266;2023-02-28T01:33:37;8.00;94.80
1447;DHT22;717;51.522;7.266;2023-02-28T01:36:09;7.90;95.00
1447;DHT22;717;51.522;7.266;2023-02-28T01:38:39;7.90;94.70
1447;DHT22;717;51.522;7.266;2023-02-28T01:41:09;7.90;94.70
1447;DHT22;717;51.522;7.266;2023-02-28T01:43:58;7.90;94.80
1447;DHT22;717;51.522;7.266;2023-02-28T01:46:29;7.90;95.30
1447;DHT22;717;51.522;7.266;2023-02-28T01:49:05;7.90;95.00
1447;DHT22;717;51.522;7.266;2023-02-28T01:51:41;7.80;95.00
1447;DHT22;717;51.522;7.266;2023-02-28T01:54:18;7.80;95.00
1447;DHT22;717;51.522;7.266;2023-02-28T01:56:49;7.80;94.80
1447;DHT22;717;51.522;7.266;2023-02-28T01:59:23;7.80;94.90
1447;DHT22;717;51.522;7.266;2023-02-28T02:01:53;7.80;94.90
1447;DHT22;717;51.522;7.266;2023-02-28T02:04:27;7.80;94.80
1447;DHT22;717;51.522;7.266;2023-02-28T02:06:59;7.80;95.10
1447;DHT22;717;51.522;7.266;2023-02-28T02:09:28;7.80;94.90
1447;DHT22;717;51.522;7.266;2023-02-28T02:11:56;7.70;94.90
1447;DHT22;717;51.522;7.266;2023-02-28T02:14:33;7.70;95.00
1447;DHT22;717;51.522;7.266;2023-02-28T02:17:13;7.70;95.10
1447;DHT22;717;51.522;7.266;2023-02-28T02:23:07;7.70;95.90
1447;DHT22;717;51.522;7.266;2023-02-28T02:25:43;7.70;95.90
1447;DHT22;717;51.522;7.266;2023-02-28T02:28:37;7.70;95.20
1447;DHT22;717;51.522;7.266;2023-02-28T02:34:28;7.60;95.60
1447;DHT22;717;51.522;7.266;2023-02-28T02:37:03;7.60;95.90
1447;DHT22;717;51.522;7.266;2023-02-28T02:39:43;7.60;95.30
1447;DHT22;717;51.522;7.266;2023-02-28T02:42:16;7.60;95.40
1447;DHT22;717;51.522;7.266;2023-02-28T02:44:50;7.60;95.10
1447;DHT22;717;51.522;7.266;2023-02-28T02:47:22;7.60;95.20
1447;DHT22;717;51.522;7.266;2023-02-28T02:49:58;7.60;95.20
1447;DHT22;717;51.522;7.266;2023-02-28T02:52:33;7.50;95.30
1447;DHT22;717;51.522;7.266;2023-02-28T02:55:04;7.50;95.40
1447;DHT22;717;51.522;7.266;2023-02-28T02:57:40;7.50;95.20
1447;DHT22;717;51.522;7.266;2023-02-28T03:00:11;7.50;95.30
1447;DHT22;717;51.522;7.266;2023-02-28T03:02:41;7.50;95.20
1447;DHT22;717;51.522;7.266;2023-02-28T03:05:19;7.50;95.10
1447;DHT22;717;51.522;7.266;2023-02-28T03:07:49;7.50;95.50
1447;DHT22;717;51.522;7.266;2023-02-28T03:10:31;7.50;95.20
1447;DHT22;717;51.522;7.266;2023-02-28T03:13:19;7.40;95.80
1447;DHT22;717;51.522;7.266;2023-02-28T03:16:01;7.40;95.60
1447;DHT22;717;51.522;7.266;2023-02-28T03:18:41;7.40;95.40
1447;DHT22;717;51.522;7.266;2023-02-28T03:21:20;7.40;95.30
1447;DHT22;717;51.522;7.266;2023-02-28T03:23:58;7.40;95.60
1447;DHT22;717;51.522;7.266;2023-02-28T03:26:31;7.40;95.40
1447;DHT22;717;51.522;7.266;2023-02-28T03:29:05;7.40;95.20
1447;DHT22;717;51.522;7.266;2023-02-28T03:31:41;7.40;95.10
1447;DHT22;717;51.522;7.266;2023-02-28T03:34:15;7.30;95.10
1447;DHT22;717;51.522;7.266;2023-02-28T03:36:51;7.30;95.20
1447;DHT22;717;51.522;7.266;2023-02-28T03:39:25;7.30;95.20
1447;DHT22;717;51.522;7.266;2023-02-28T03:41:58;7.30;95.10
1447;DHT22;717;51.522;7.266;2023-02-28T03:44:30;7.30;95.20
1447;DHT22;717;51.522;7.266;2023-02-28T03:47:04;7.30;95.10
1447;DHT22;717;51.522;7.266;2023-02-28T03:49:37;7.30;95.00
1447;DHT22;717;51.522;7.266;2023-02-28T03:52:11;7.30;95.10
1447;DHT22;717;51.522;7.266;2023-02-28T03:54:43;7.30;95.10
1447;DHT22;717;51.522;7.266;2023-02-28T03:57:20;7.30;95.10
1447;DHT22;717;51.522;7.266;2023-02-28T03:59:55;7.20;95.20
1447;DHT22;717;51.522;7.266;2023-02-28T04:02:25;7.20;95.10
1447;DHT22;717;51.522;7.266;2023-02-28T04:04:54;7.20;95.00
1447;DHT22;717;51.522;7.266;2023-02-28T04:07:28;7.20;95.00
1447;DHT22;717;51.522;7.266;2023-02-28T04:09:57;7.20;95.00
1447;DHT22;717;51.522;7.266;2023-02-28T04:12:26;7.20;94.90
1447;DHT22;717;51.522;7.266;2023-02-28T04:14:55;7.20;94.90
1447;DHT22;717;51.522;7.266;2023-02-28T04:17:23;7.20;95.00
1447;DHT22;717;51.522;7.266;2023-02-28T04:19:52;7.10;94.90
1447;DHT22;717;51.522;7.266;2023-02-28T04:22:25;7.20;94.90
1447;DHT22;717;51.522;7.266;2023-02-28T04:24:54;7.10;95.00
1447;DHT22;717;51.522;7.266;2023-02-28T04:27:22;7.10;95.00
1447;DHT22;717;51.522;7.266;2023-02-28T04:29:51;7.10;94.90
1447;DHT22;717;51.522;7.266;2023-02-28T04:32:19;7.10;95.00
1447;DHT22;717;51.522;7.266;2023-02-28T04:34:48;7.10;95.10
1447;DHT22;717;51.522;7.266;2023-02-28T04:37:16;7.10;94.90
1447;DHT22;717;51.522;7.266;2023-02-28T04:39:47;7.10;94.90
1447;DHT22;717;51.522;7.266;2023-02-28T04:42:16;7.00;95.00
1447;DHT22;717;51.522;7.266;2023-02-28T04:44:44;7.00;94.90
1447;DHT22;717;51.522;7.266;2023-02-28T04:47:13;7.00;94.90
1447;DHT22;717;51.522;7.266;2023-02-28T04:49:41;7.00;94.90
1447;DHT22;717;51.522;7.266;2023-02-28T04:52:10;7.00;95.00
1447;DHT22;717;51.522;7.266;2023-02-28T04:54:38;7.00;94.90
1447;DHT22;717;51.522;7.266;2023-02-28T04:57:10;7.00;95.00
1447;DHT22;717;51.522;7.266;2023-02-28T04:59:38;7.00;95.00
1447;DHT22;717;51.522;7.266;2023-02-28T05:02:07;7.00;94.80
1447;DHT22;717;51.522;7.266;2023-02-28T05:04:36;6.90;94.80
1447;DHT22;717;51.522;7.266;2023-02-28T05:07:04;7.00;94.90
1447;DHT22;717;51.522;7.266;2023-02-28T05:09:33;7.00;94.80
1447;DHT22;717;51.522;7.266;2023-02-28T05:12:01;6.90;94.70
1447;DHT22;717;51.522;7.266;2023-02-28T05:14:33;6.90;94.80
1447;DHT22;717;51.522;7.266;2023-02-28T05:17:02;6.90;94.90
1447;DHT22;717;51.522;7.266;2023-02-28T05:19:30;6.90;94.80
1447;DHT22;717;51.522;7.266;2023-02-28T05:21:59;6.90;94.80
1447;DHT22;717;51.522;7.266;2023-02-28T05:24:28;6.90;94.90
1447;DHT22;717;51.522;7.266;2023-02-28T05:26:56;6.90;94.80
1447;DHT22;717;51.522;7.266;2023-02-28T05:29:25;6.80;94.90
1447;DHT22;717;51.522;7.266;2023-02-28T05:31:56;6.90;94.90
1447;DHT22;717;51.522;7.266;2023-02-28T05:34:25;6.80;94.90
1447;DHT22;717;51.522;7.266;2023-02-28T05:36:53;6.80;94.90
1447;DHT22;717;51.522;7.266;2023-02-28T05:39:22;6.80;94.90
1447;DHT22;717;51.522;7.266;2023-02-28T05:41:50;6.80;94.80
1447;DHT22;717;51.522;7.266;2023-02-28T05:44:19;6.80;94.90
1447;DHT22;717;51.522;7.266;2023-02-28T05:46:47;6.80;94.90
1447;DHT22;717;51.522;7.266;2023-02-28T05:49:18;6.80;94.90
1447;DHT22;717;51.522;7.266;2023-02-28T05:51:47;6.70;94.90
1447;DHT22;717;51.522;7.266;2023-02-28T05:54:16;6.70;94.90
1447;DHT22;717;51.522;7.266;2023-02-28T05:56:44;6.70;94.90
1447;DHT22;717;51.522;7.266;2023-02-28T05:59:13;6.70;94.90
1447;DHT22;717;51.522;7.266;2023-02-28T06:01:43;6.70;94.70
1447;DHT22;717;51.522;7.266;2023-02-28T06:04:15;6.70;94.80
1447;DHT22;717;51.522;7.266;2023-02-28T06:06:47;6.70;94.70
1447;DHT22;717;51.522;7.266;2023-02-28T06:09:17;6.70;95.00
1447;DHT22;717;51.522;7.266;2023-02-28T06:11:46;6.70;94.80
1447;DHT22;717;51.522;7.266;2023-02-28T06:14:16;6.70;94.90
1447;DHT22;717;51.522;7.266;2023-02-28T06:16:45;6.70;95.00
1447;DHT22;717;51.522;7.266;2023-02-28T06:19:13;6.70;94.90
1447;DHT22;717;51.522;7.266;2023-02-28T06:21:43;6.70;94.90
1447;DHT22;717;51.522;7.266;2023-02-28T06:24:14;6.70;94.90
1447;DHT22;717;51.522;7.266;2023-02-28T06:26:42;6.60;95.10
1447;DHT22;717;51.522;7.266;2023-02-28T06:29:11;6.70;95.00
1447;DHT22;717;51.522;7.266;2023-02-28T06:31:44;6.60;94.90
1447;DHT22;717;51.522;7.266;2023-02-28T06:34:13;6.60;95.00
1447;DHT22;717;51.522;7.266;2023-02-28T06:36:42;6.60;94.90
1447;DHT22;717;51.522;7.266;2023-02-28T06:39:10;6.60;95.00
1447;DHT22;717;51.522;7.266;2023-02-28T06:41:41;6.60;95.00
1447;DHT22;717;51.522;7.266;2023-02-28T06:44:13;6.60;95.20
1447;DHT22;717;51.522;7.266;2023-02-28T06:46:42;6.60;95.00
1447;DHT22;717;51.522;7.266;2023-02-28T06:49:11;6.60;95.10
1447;DHT22;717;51.522;7.266;2023-02-28T06:51:44;6.60;95.10
1447;DHT22;717;51.522;7.266;2023-02-28T06:54:13;6.60;95.30
1447;DHT22;717;51.522;7.266;2023-02-28T06:56:44;6.60;95.20
1447;DHT22;717;51.522;7.266;2023-02-28T06:59:13;6.60;95.20
1447;DHT22;717;51.522;7.266;2023-02-28T07:01:41;6.60;95.10
1447;DHT22;717;51.522;7.266;2023-02-28T07:04:10;6.60;95.10
1447;DHT22;717;51.522;7.266;2023-02-28T07:06:39;6.60;95.20
1447;DHT22;717;51.522;7.266;2023-02-28T07:09:07;6.60;95.20
1447;DHT22;717;51.522;7.266;2023-02-28T07:11:36;6.50;95.20
1447;DHT22;717;51.522;7.266;2023-02-28T07:14:07;6.60;95.30
1447;DHT22;717;51.522;7.266;2023-02-28T07:16:36;6.50;95.30
1447;DHT22;717;51.522;7.266;2023-02-28T07:19:04;6.60;95.20
1447;DHT22;717;51.522;7.266;2023-02-28T07:21:33;6.60;95.30
1447;DHT22;717;51.522;7.266;2023-02-28T07:24:01;6.60;95.30
1447;DHT22;717;51.522;7.266;2023-02-28T07:26:30;6.60;95.30
1447;DHT22;717;51.522;7.266;2023-02-28T07:28:59;6.60;95.30
1447;DHT22;717;51.522;7.266;2023-02-28T07:31:31;6.60;95.30
1447;DHT22;717;51.522;7.266;2023-02-28T07:33:59;6.60;95.50
1447;DHT22;717;51.522;7.266;2023-02-28T07:36:28;6.60;95.50
1447;DHT22;717;51.522;7.266;2023-02-28T07:38:58;6.60;95.20
1447;DHT22;717;51.522;7.266;2023-02-28T07:41:28;6.70;95.40
1447;DHT22;717;51.522;7.266;2023-02-28T07:43:59;6.70;95.30
1447;DHT22;717;51.522;7.266;2023-02-28T07:46:31;6.70;95.40
1447;DHT22;717;51.522;7.266;2023-02-28T07:49:01;6.70;95.30
1447;DHT22;717;51.522;7.266;2023-02-28T07:51:31;6.70;95.30
1447;DHT22;717;51.522;7.266;2023-02-28T07:54:00;6.70;95.40
1447;DHT22;717;51.522;7.266;2023-02-28T07:56:28;6.70;95.30
1447;DHT22;717;51.522;7.266;2023-02-28T07:58:57;6.80;95.20
1447;DHT22;717;51.522;7.266;2023-02-28T08:01:27;6.70;95.20
1447;DHT22;717;51.522;7.266;2023-02-28T08:03:58;6.80;95.10
1447;DHT22;717;51.522;7.266;2023-02-28T08:06:27;6.80;95.30
1447;DHT22;717;51.522;7.266;2023-02-28T08:08:55;6.80;95.10
1447;DHT22;717;51.522;7.266;2023-02-28T08:11:24;6.90;95.20
1447;DHT22;717;51.522;7.266;2023-02-28T08:13:54;6.80;95.30
1447;DHT22;717;51.522;7.266;2023-02-28T08:16:23;6.90;95.40
1447;DHT22;717;51.522;7.266;2023-02-28T08:18:52;6.90;94.90
1447;DHT22;717;51.522;7.266;2023-02-28T08:21:23;6.90;95.40
1447;DHT22;717;51.522;7.266;2023-02-28T08:23:52;6.90;95.20
1447;DHT22;717;51.522;7.266;2023-02-28T08:26:22;6.90;95.00
1447;DHT22;717;51.522;7.266;2023-02-28T08:28:51;7.00;95.20
1447;DHT22;717;51.522;7.266;2023-02-28T08:31:19;7.00;95.20
1447;DHT22;717;51.522;7.266;2023-02-28T08:33:48;7.00;94.90
1447;DHT22;717;51.522;7.266;2023-02-28T08:36:17;7.00;94.60
1447;DHT22;717;51.522;7.266;2023-02-28T08:38:48;7.00;94.60
1447;DHT22;717;51.522;7.266;2023-02-28T08:41:17;7.10;95.00
1447;DHT22;717;51.522;7.266;2023-02-28T08:43:46;7.10;95.10
1447;DHT22;717;51.522;7.266;2023-02-28T08:46:14;7.10;95.00
1447;DHT22;717;51.522;7.266;2023-02-28T08:48:43;7.10;94.90
1447;DHT22;717;51.522;7.266;2023-02-28T08:51:14;7.10;94.90
1447;DHT22;717;51.522;7.266;2023-02-28T08:53:44;7.20;94.60
1447;DHT22;717;51.522;7.266;2023-02-28T08:56:17;7.20;94.60
1447;DHT22;717;51.522;7.266;2023-02-28T08:58:47;7.20;94.80
1447;DHT22;717;51.522;7.266;2023-02-28T09:01:18;7.30;94.80
1447;DHT22;717;51.522;7.266;2023-02-28T09:03:48;7.30;94.50
1447;DHT22;717;51.522;7.266;2023-02-28T09:06:18;7.30;94.40
1447;DHT22;717;51.522;7.266;2023-02-28T09:08:47;7.30;94.50
1447;DHT22;717;51.522;7.266;2023-02-28T09:11:19;7.40;94.40
1447;DHT22;717;51.522;7.266;2023-02-28T09:13:48;7.40;94.60
1447;DHT22;717;51.522;7.266;2023-02-28T09:16:17;7.60;94.30
1447;DHT22;717;51.522;7.266;2023-02-28T09:18:46;7.80;94.30
1447;DHT22;717;51.522;7.266;2023-02-28T09:21:16;7.90;94.00
1447;DHT22;717;51.522;7.266;2023-02-28T09:23:46;7.90;94.00
1447;DHT22;717;51.522;7.266;2023-02-28T09:26:20;7.90;93.70
1447;DHT22;717;51.522;7.266;2023-02-28T09:28:51;7.80;93.50
1447;DHT22;717;51.522;7.266;2023-02-28T09:31:21;7.80;93.50
1447;DHT22;717;51.522;7.266;2023-02-28T09:33:52;7.80;93.70
1447;DHT22;717;51.522;7.266;2023-02-28T09:36:21;7.80;93.50
1447;DHT22;717;51.522;7.266;2023-02-28T09:38:50;7.80;93.30
1447;DHT22;717;51.522;7.266;2023-02-28T09:41:23;7.80;93.30
1447;DHT22;717;51.522;7.266;2023-02-28T09:43:55;7.80;93.40
1447;DHT22;717;51.522;7.266;2023-02-28T09:46:31;7.80;93.60
1447;DHT22;717;51.522;7.266;2023-02-28T09:49:04;7.80;93.50
1447;DHT22;717;51.522;7.266;2023-02-28T09:51:42;7.90;93.30
1447;DHT22;717;51.522;7.266;2023-02-28T09:54:15;7.90;93.30
1447;DHT22;717;51.522;7.266;2023-02-28T09:56:49;7.90;93.10
1447;DHT22;717;51.522;7.266;2023-02-28T09:59:46;7.90;93.10
1447;DHT22;717;51.522;7.266;2023-02-28T10:02:37;8.00;93.10
1447;DHT22;717;51.522;7.266;2023-02-28T10:05:10;8.00;92.80
1447;DHT22;717;51.522;7.266;2023-02-28T10:07:52;8.00;92.70
1447;DHT22;717;51.522;7.266;2023-02-28T10:10:28;8.10;92.80
1447;DHT22;717;51.522;7.266;2023-02-28T10:13:04;8.10;92.80
1447;DHT22;717;51.522;7.266;2023-02-28T10:15:34;8.10;92.80
1447;DHT22;717;51.522;7.266;2023-02-28T10:18:06;8.10;92.90
1447;DHT22;717;51.522;7.266;2023-02-28T10:20:39;8.20;92.70
1447;DHT22;717;51.522;7.266;2023-02-28T10:23:13;8.20;92.60
1447;DHT22;717;51.522;7.266;2023-02-28T10:25:46;8.30;92.60
1447;DHT22;717;51.522;7.266;2023-02-28T10:28:18;8.30;92.60
1447;DHT22;717;51.522;7.266;2023-02-28T10:30:48;8.30;92.20
1447;DHT22;717;51.522;7.266;2023-02-28T10:33:21;8.40;92.90
1447;DHT22;717;51.522;7.266;2023-02-28T10:35:51;8.40;92.40
1447;DHT22;717;51.522;7.266;2023-02-28T10:38:22;8.50;92.40
1447;DHT22;717;51.522;7.266;2023-02-28T10:40:51;8.60;91.90
1447;DHT22;717;51.522;7.266;2023-02-28T10:43:34;8.60;91.80
1447;DHT22;717;51.522;7.266;2023-02-28T10:46:05;8.60;91.90
1447;DHT22;717;51.522;7.266;2023-02-28T10:48:42;8.60;91.50
1447;DHT22;717;51.522;7.266;2023-02-28T10:51:15;8.70;91.70
1447;DHT22;717;51.522;7.266;2023-02-28T10:53:48;8.80;91.60
1447;DHT22;717;51.522;7.266;2023-02-28T10:56:19;8.90;91.60
1447;DHT22;717;51.522;7.266;2023-02-28T10:58:54;8.90;91.50
1447;DHT22;717;51.522;7.266;2023-02-28T11:01:27;9.00;91.40
1447;DHT22;717;51.522;7.266;2023-02-28T11:04:02;9.10;91.40
1447;DHT22;717;51.522;7.266;2023-02-28T11:06:33;9.10;91.00
1447;DHT22;717;51.522;7.266;2023-02-28T11:09:05;9.20;90.90
1447;DHT22;717;51.522;7.266;2023-02-28T11:11:45;9.20;90.80
1447;DHT22;717;51.522;7.266;2023-02-28T11:14:21;9.30;90.90
1447;DHT22;717;51.522;7.266;2023-02-28T11:16:51;9.40;90.70
1447;DHT22;717;51.522;7.266;2023-02-28T11:19:23;9.40;90.60
1447;DHT22;717;51.522;7.266;2023-02-28T11:21:54;9.50;90.80
1447;DHT22;717;51.522;7.266;2023-02-28T11:24:27;9.60;90.50
1447;DHT22;717;51.522;7.266;2023-02-28T11:26:56;9.60;90.30
1447;DHT22;717;51.522;7.266;2023-02-28T11:29:29;9.70;90.50
1447;DHT22;717;51.522;7.266;2023-02-28T11:32:06;9.80;90.30
1447;DHT22;717;51.522;7.266;2023-02-28T11:34:38;9.80;90.20
1447;DHT22;717;51.522;7.266;2023-02-28T11:37:12;9.90;90.20
1447;DHT22;717;51.522;7.266;2023-02-28T11:39:42;9.90;90.20
1447;DHT22;717;51.522;7.266;2023-02-28T11:45:21;10.10;90.20
1447;DHT22;717;51.522;7.266;2023-02-28T11:47:57;10.20;90.00
1447;DHT22;717;51.522;7.266;2023-02-28T11:50:45;10.30;90.10
1447;DHT22;717;51.522;7.266;2023-02-28T11:53:21;10.40;90.20
1447;DHT22;717;51.522;7.266;2023-02-28T11:55:54;10.50;90.00
1447;DHT22;717;51.522;7.266;2023-02-28T11:58:38;10.60;90.10
1447;DHT22;717;51.522;7.266;2023-02-28T12:01:21;10.60;89.60
1447;DHT22;717;51.522;7.266;2023-02-28T12:04:07;10.70;89.50
1447;DHT22;717;51.522;7.266;2023-02-28T12:06:43;10.70;89.80
1447;DHT22;717;51.522;7.266;2023-02-28T12:09:27;10.80;89.10
1447;DHT22;717;51.522;7.266;2023-02-28T12:12:04;10.90;89.30
1447;DHT22;717;51.522;7.266;2023-02-28T12:14:50;11.00;89.30
1447;DHT22;717;51.522;7.266;2023-02-28T12:17:32;11.10;89.30
1447;DHT22;717;51.522;7.266;2023-02-28T12:20:12;11.20;89.40
1447;DHT22;717;51.522;7.266;2023-02-28T12:22:50;11.30;89.20
1447;DHT22;717;51.522;7.266;2023-02-28T12:25:43;11.40;89.50
1447;DHT22;717;51.522;7.266;2023-02-28T12:28:17;11.40;88.60
1447;DHT22;717;51.522;7.266;2023-02-28T12:30:51;11.50;88.70
1447;DHT22;717;51.522;7.266;2023-02-28T12:33:28;11.60;89.10
1447;DHT22;717;51.522;7.266;2023-02-28T12:36:00;11.60;88.90
1447;DHT22;717;51.522;7.266;2023-02-28T12:38:36;11.70;89.20
1447;DHT22;717;51.522;7.266;2023-02-28T12:41:11;11.80;88.90
1447;DHT22;717;51.522;7.266;2023-02-28T12:43:44;11.90;88.80
1447;DHT22;717;51.522;7.266;2023-02-28T12:46:17;12.00;88.70
1447;DHT22;717;51.522;7.266;2023-02-28T12:48:53;12.20;88.80
1447;DHT22;717;51.522;7.266;2023-02-28T12:51:24;12.20;88.20
1447;DHT22;717;51.522;7.266;2023-02-28T12:53:58;12.30;87.90
1447;DHT22;717;51.522;7.266;2023-02-28T12:56:37;12.30;88.00
1447;DHT22;717;51.522;7.266;2023-02-28T12:59:14;12.40;88.40
1447;DHT22;717;51.522;7.266;2023-02-28T13:04:59;12.60;88.30
1447;DHT22;717;51.522;7.266;2023-02-28T13:10:21;12.70;87.60
1447;DHT22;717;51.522;7.266;2023-02-28T13:12:50;12.70;87.20
1447;DHT22;717;51.522;7.266;2023-02-28T13:15:22;12.70;86.50
1447;DHT22;717;51.522;7.266;2023-02-28T13:17:52;12.70;86.70
1447;DHT22;717;51.522;7.266;2023-02-28T13:20:26;12.70;86.50
1447;DHT22;717;51.522;7.266;2023-02-28T13:22:55;12.70;86.60
1447;DHT22;717;51.522;7.266;2023-02-28T13:25:51;12.70;86.40
1447;DHT22;717;51.522;7.266;2023-02-28T13:34:41;12.70;86.00
1447;DHT22;717;51.522;7.266;2023-02-28T13:37:37;12.70;85.70
1447;DHT22;717;51.522;7.266;2023-02-28T13:40:29;12.70;85.60
1447;DHT22;717;51.522;7.266;2023-02-28T13:43:03;12.70;84.90
1447;DHT22;717;51.522;7.266;2023-02-28T13:45:35;12.70;84.90
1447;DHT22;717;51.522;7.266;2023-02-28T13:48:15;12.70;84.90
1447;DHT22;717;51.522;7.266;2023-02-28T13:50:45;12.70;84.70
1447;DHT22;717;51.522;7.266;2023-02-28T13:53:40;12.70;85.00
1447;DHT22;717;51.522;7.266;2023-02-28T13:56:30;12.70;85.00
1447;DHT22;717;51.522;7.266;2023-02-28T13:59:12;12.70;85.10
1447;DHT22;717;51.522;7.266;2023-02-28T14:02:00;12.70;84.90
1447;DHT22;717;51.522;7.266;2023-02-28T14:04:48;12.80;84.70
1447;DHT22;717;51.522;7.266;2023-02-28T14:07:20;12.80;84.90
1447;DHT22;717;51.522;7.266;2023-02-28T14:09:57;12.90;84.70
1447;DHT22;717;51.522;7.266;2023-02-28T14:12:52;13.00;84.30
1447;DHT22;717;51.522;7.266;2023-02-28T14:15:34;13.00;84.10
1447;DHT22;717;51.522;7.266;2023-02-28T14:18:14;13.00;84.30
1447;DHT22;717;51.522;7.266;2023-02-28T14:20:44;13.10;84.70
1447;DHT22;717;51.522;7.266;2023-02-28T14:23:20;13.10;84.60
1447;DHT22;717;51.522;7.266;2023-02-28T14:26:01;13.20;84.40
1447;DHT22;717;51.522;7.266;2023-02-28T14:28:47;13.20;84.00
1447;DHT22;717;51.522;7.266;2023-02-28T14:31:23;13.30;84.20
1447;DHT22;717;51.522;7.266;2023-02-28T14:34:13;13.30;83.80
1447;DHT22;717;51.522;7.266;2023-02-28T14:36:46;13.30;83.80
1447;DHT22;717;51.522;7.266;2023-02-28T14:39:16;13.30;83.60
1447;DHT22;717;51.522;7.266;2023-02-28T14:41:49;13.40;83.50
1447;DHT22;717;51.522;7.266;2023-02-28T14:44:20;13.40;83.30
1447;DHT22;717;51.522;7.266;2023-02-28T14:46:52;13.50;83.10
1447;DHT22;717;51.522;7.266;2023-02-28T14:49:24;13.50;83.00
1447;DHT22;717;51.522;7.266;2023-02-28T14:52:03;13.50;82.60
1447;DHT22;717;51.522;7.266;2023-02-28T14:54:35;13.50;82.00
1447;DHT22;717;51.522;7.266;2023-02-28T14:57:20;13.50;82.00
1447;DHT22;717;51.522;7.266;2023-02-28T14:59:58;13.50;81.90
1447;DHT22;717;51.522;7.266;2023-02-28T15:02:31;13.50;82.40
1447;DHT22;717;51.522;7.266;2023-02-28T15:05:16;13.50;82.90
1447;DHT22;717;51.522;7.266;2023-02-28T15:07:48;13.60;82.60
1447;DHT22;717;51.522;7.266;2023-02-28T15:10:19;13.60;82.50
1447;DHT22;717;51.522;7.266;2023-02-28T15:12:54;13.60;82.60
1447;DHT22;717;51.522;7.266;2023-02-28T15:15:27;13.60;82.20
1447;DHT22;717;51.522;7.266;2023-02-28T15:17:59;13.60;82.10
1447;DHT22;717;51.522;7.266;2023-02-28T15:20:29;13.70;82.20
1447;DHT22;717;51.522;7.266;2023-02-28T15:22:57;13.60;82.00
1447;DHT22;717;51.522;7.266;2023-02-28T15:25:27;13.60;81.80
1447;DHT22;717;51.522;7.266;2023-02-28T15:27:59;13.60;81.80
1447;DHT22;717;51.522;7.266;2023-02-28T15:30:30;13.60;81.60
1447;DHT22;717;51.522;7.266;2023-02-28T15:33:07;13.50;81.70
1447;DHT22;717;51.522;7.266;2023-02-28T15:35:37;13.50;82.00
1447;DHT22;717;51.522;7.266;2023-02-28T15:38:15;13.40;82.10
1447;DHT22;717;51.522;7.266;2023-02-28T15:40:45;13.40;81.60
1447;DHT22;717;51.522;7.266;2023-02-28T15:43:30;13.30;81.50
1447;DHT22;717;51.522;7.266;2023-02-28T15:46:00;13.30;81.70
1447;DHT22;717;51.522;7.266;2023-02-28T15:48:31;13.30;81.50
1447;DHT22;717;51.522;7.266;2023-02-28T15:51:04;13.20;81.30
1447;DHT22;717;51.522;7.266;2023-02-28T15:53:37;13.20;81.20
1447;DHT22;717;51.522;7.266;2023-02-28T15:56:22;13.10;81.10
1447;DHT22;717;51.522;7.266;2023-02-28T15:58:57;13.00;80.90
1447;DHT22;717;51.522;7.266;2023-02-28T16:01:27;12.90;80.90
1447;DHT22;717;51.522;7.266;2023-02-28T16:03:59;12.80;81.20
1447;DHT22;717;51.522;7.266;2023-02-28T16:06:34;12.80;81.50
1447;DHT22;717;51.522;7.266;2023-02-28T16:09:05;12.70;81.30
1447;DHT22;717;51.522;7.266;2023-02-28T16:11:39;12.70;81.30
1447;DHT22;717;51.522;7.266;2023-02-28T16:14:17;12.70;81.70
1447;DHT22;717;51.522;7.266;2023-02-28T16:16:47;12.60;81.30
1447;DHT22;717;51.522;7.266;2023-02-28T16:19:17;12.60;81.50
1447;DHT22;717;51.522;7.266;2023-02-28T16:21:46;12.50;81.50
1447;DHT22;717;51.522;7.266;2023-02-28T16:24:14;12.50;81.40
1447;DHT22;717;51.522;7.266;2023-02-28T16:26:46;12.40;80.90
1447;DHT22;717;51.522;7.266;2023-02-28T16:29:24;12.40;81.50
1447;DHT22;717;51.522;7.266;2023-02-28T16:31:53;12.40;81.60
1447;DHT22;717;51.522;7.266;2023-02-28T16:34:22;12.30;81.50
1447;DHT22;717;51.522;7.266;2023-02-28T16:36:51;12.30;81.50
1447;DHT22;717;51.522;7.266;2023-02-28T16:39:19;12.20;81.40
1447;DHT22;717;51.522;7.266;2023-02-28T16:41:49;12.20;81.60
1447;DHT22;717;51.522;7.266;2023-02-28T16:44:27;12.20;81.20
1447;DHT22;717;51.522;7.266;2023-02-28T16:46:56;12.10;81.60
1447;DHT22;717;51.522;7.266;2023-02-28T16:49:25;12.10;81.80
1447;DHT22;717;51.522;7.266;2023-02-28T16:51:53;12.00;81.50
1447;DHT22;717;51.522;7.266;2023-02-28T16:54:22;12.00;82.10
1447;DHT22;717;51.522;7.266;2023-02-28T16:56:51;12.00;81.60
1447;DHT22;717;51.522;7.266;2023-02-28T16:59:24;11.90;82.10
1447;DHT22;717;51.522;7.266;2023-02-28T17:01:54;11.90;81.90
1447;DHT22;717;51.522;7.266;2023-02-28T17:04:23;11.90;81.50
1447;DHT22;717;51.522;7.266;2023-02-28T17:06:52;11.80;82.30
1447;DHT22;717;51.522;7.266;2023-02-28T17:09:22;11.80;82.30
1447;DHT22;717;51.522;7.266;2023-02-28T17:11:52;11.70;82.60
1447;DHT22;717;51.522;7.266;2023-02-28T17:14:24;11.70;82.90
1447;DHT22;717;51.522;7.266;2023-02-28T17:16:53;11.70;82.90
1447;DHT22;717;51.522;7.266;2023-02-28T17:19:21;11.70;82.80
1447;DHT22;717;51.522;7.266;2023-02-28T17:21:50;11.60;82.90
1447;DHT22;717;51.522;7.266;2023-02-28T17:24:18;11.60;83.30
1447;DHT22;717;51.522;7.266;2023-02-28T17:26:47;11.60;83.60